Time;durP1;ratioP1;P1;durP2;ratioP2;P2;SDS_P1;SDS_P2;PMS_P1;PMS_P2;Temp;Humidity;BMP_temperature;BMP_pressure;BME280_temperature;BME280_humidity;BME280_pressure;Samples;Min_cycle;Max_cycle;Signal;HPM_P1;HPM_P2
2021/12/21 00:02:00;;;;;;;23.17;10.48;;;19.10;52.60;;;;;;5067601;28;20052;-86
2021/12/21 00:04:26;;;;;;;21.55;10.48;;;19.00;52.50;;;;;;5067832;28;20045;-85
2021/12/21 00:06:51;;;;;;;24.30;11.38;;;19.00;52.60;;;;;;5070674;28;20048;-85
2021/12/21 00:09:19;;;;;;;22.45;10.27;;;19.10;52.60;;;;;;5069964;22;20168;-85
2021/12/21 00:11:45;;;;;;;22.60;10.15;;;19.00;52.60;;;;;;5011248;28;20057;-85
2021/12/21 00:14:25;;;;;;;19.02;9.32;;;19.00;52.60;;;;;;5011164;28;20063;-85
2021/12/21 00:20:13;;;;;;;20.20;9.75;;;20.40;53.30;;;;;;5014712;28;20054;-85
2021/12/21 00:22:46;;;;;;;21.10;9.98;;;19.00;52.60;;;;;;5004403;28;20076;-84
2021/12/21 00:25:03;;;;;;;20.02;9.80;;;19.00;52.60;;;;;;5014531;28;20045;-85
2021/12/21 00:27:28;;;;;;;20.50;9.38;;;19.00;52.60;;;;;;5014289;28;20056;-85
2021/12/21 00:29:54;;;;;;;19.65;9.60;;;18.90;52.50;;;;;;5015152;28;20388;-85
2021/12/21 00:32:19;;;;;;;22.10;9.95;;;19.00;52.60;;;;;;5014849;28;20057;-85
2021/12/21 00:34:45;;;;;;;21.17;9.95;;;18.90;52.50;;;;;;4988932;28;20088;-85
2021/12/21 00:37:10;;;;;;;20.08;8.88;;;18.90;52.50;;;;;;5014574;28;20049;-85
2021/12/21 00:39:36;;;;;;;19.08;9.35;;;19.20;52.70;;;;;;5014439;28;20061;-85
2021/12/21 00:42:02;;;;;;;19.88;9.07;;;18.70;52.40;;;;;;5014079;28;20408;-84
2021/12/21 00:44:28;;;;;;;18.73;9.18;;;18.90;52.50;;;;;;5014810;28;20736;-85
2021/12/21 00:46:53;;;;;;;19.48;8.88;;;18.80;52.50;;;;;;5014022;28;20046;-85
2021/12/21 00:49:21;;;;;;;17.92;8.45;;;18.80;52.50;;;;;;5013845;28;20183;-85
2021/12/21 00:51:47;;;;;;;18.55;7.97;;;18.80;52.50;;;;;;5014536;28;20045;-85
2021/12/21 00:54:12;;;;;;;17.13;8.48;;;20.00;53.10;;;;;;5014270;28;20095;-85
2021/12/21 00:56:38;;;;;;;17.08;8.60;;;18.80;52.50;;;;;;5013936;28;20060;-86
2021/12/21 00:59:04;;;;;;;15.55;8.18;;;18.80;52.50;;;;;;5014526;28;20497;-86
2021/12/21 01:01:30;;;;;;;16.85;8.07;;;18.80;52.50;;;;;;5013885;28;20045;-85
2021/12/21 01:03:57;;;;;;;16.67;8.13;;;20.20;53.30;;;;;;5013510;28;20053;-85
2021/12/21 01:06:41;;;;;;;15.70;8.32;;;18.90;52.60;;;;;;5013615;28;20045;-85
2021/12/21 01:09:33;;;;;;;16.33;7.85;;;18.80;52.50;;;;;;5013151;28;20085;-85
2021/12/21 01:12:03;;;;;;;16.40;7.80;;;18.80;52.50;;;;;;5012506;28;20054;-85
2021/12/21 01:19:37;;;;;;;16.75;7.53;;;20.10;53.20;;;;;;5014079;28;20049;-85
2021/12/21 01:22:14;;;;;;;15.60;7.27;;;18.80;52.50;;;;;;5013619;28;20409;-85
2021/12/21 01:25:13;;;;;;;14.07;7.32;;;18.80;52.50;;;;;;5013481;28;20047;-86
2021/12/21 01:30:32;;;;;;;13.02;7.30;;;18.70;52.50;;;;;;5012333;28;20053;-85
2021/12/21 01:33:07;;;;;;;14.52;7.22;;;18.70;52.50;;;;;;5031104;28;20057;-85
2021/12/21 01:35:38;;;;;;;16.13;7.53;;;18.70;52.50;;;;;;5013192;28;20411;-85
2021/12/21 01:38:14;;;;;;;13.98;7.15;;;18.70;52.50;;;;;;5013253;28;20136;-85
2021/12/21 01:43:26;;;;;;;13.32;7.10;;;18.70;52.50;;;;;;5013494;28;20055;-85
2021/12/21 01:51:20;;;;;;;15.27;6.82;;;18.70;52.50;;;;;;5012630;28;20042;-85
2021/12/21 01:53:46;;;;;;;13.50;6.88;;;18.70;52.60;;;;;;5013292;28;20144;-85
2021/12/21 01:56:14;;;;;;;14.00;6.85;;;18.70;52.50;;;;;;5013122;28;20045;-86
2021/12/21 01:58:40;;;;;;;15.65;6.43;;;20.10;53.30;;;;;;5012647;28;20065;-85
2021/12/21 02:01:10;;;;;;;13.38;6.93;;;18.70;52.50;;;;;;5013024;28;20140;-85
2021/12/21 02:03:36;;;;;;;11.57;6.13;;;18.70;52.50;;;;;;5012891;28;20056;-86
2021/12/21 02:06:02;;;;;;;12.57;6.80;;;18.70;52.50;;;;;;5029006;28;20037;-85
2021/12/21 02:08:27;;;;;;;12.55;6.18;;;19.30;52.90;;;;;;5012978;28;20045;-85
2021/12/21 02:10:53;;;;;;;13.95;6.85;;;18.70;52.50;;;;;;5012485;28;20099;-85
2021/12/21 02:13:18;;;;;;;13.15;6.85;;;18.70;52.50;;;;;;5012163;28;20041;-86
2021/12/21 02:15:44;;;;;;;13.73;6.55;;;18.70;52.50;;;;;;5012914;28;20045;-85
2021/12/21 02:28:09;;;;;;;12.98;6.38;;;18.60;52.50;;;;;;5011827;28;20054;-85
2021/12/21 02:30:36;;;;;;;12.57;6.05;;;18.60;52.50;;;;;;5012608;28;20045;-85
2021/12/21 02:33:02;;;;;;;12.35;5.75;;;18.60;52.50;;;;;;5012459;28;20041;-86
2021/12/21 02:35:27;;;;;;;10.68;5.68;;;18.60;52.50;;;;;;5011857;28;20052;-85
2021/12/21 02:37:53;;;;;;;9.80;5.57;;;18.60;52.50;;;;;;5007480;28;20442;-85
2021/12/21 02:40:18;;;;;;;10.32;5.55;;;18.60;52.50;;;;;;5026897;28;20475;-85
2021/12/21 02:42:44;;;;;;;11.98;5.45;;;18.60;52.50;;;;;;5012283;28;20144;-85
2021/12/21 02:45:11;;;;;;;9.18;5.32;;;18.60;52.50;;;;;;5014394;28;20115;-85
2021/12/21 02:47:37;;;;;;;11.30;5.88;;;18.60;52.50;;;;;;5011563;28;20509;-86
2021/12/21 02:50:03;;;;;;;12.02;6.07;;;18.60;52.50;;;;;;5012023;28;20042;-86
2021/12/21 02:52:28;;;;;;;13.48;6.00;;;18.60;52.50;;;;;;5001352;28;20061;-85
2021/12/21 02:54:54;;;;;;;9.63;5.53;;;18.60;52.50;;;;;;5028100;28;20060;-85
2021/12/21 02:57:19;;;;;;;10.68;5.63;;;18.60;52.50;;;;;;5010190;28;20128;-85
2021/12/21 02:59:45;;;;;;;9.65;5.40;;;18.60;52.60;;;;;;5011914;28;20053;-85
2021/12/21 03:02:11;;;;;;;10.65;5.63;;;18.60;52.50;;;;;;5011325;28;20057;-86
2021/12/21 03:04:36;;;;;;;12.00;5.40;;;18.60;52.50;;;;;;5012061;28;20052;-85
2021/12/21 03:07:31;;;;;;;8.10;5.00;;;18.60;52.50;;;;;;5011589;28;20049;-85
2021/12/21 03:10:02;;;;;;;10.10;5.32;;;18.60;52.50;;;;;;5011544;28;20076;-85
2021/12/21 03:13:51;;;;;;;8.75;4.75;;;18.60;52.50;;;;;;5009446;28;20064;-85
2021/12/21 03:15:13;;;;;;;11.15;5.13;;;18.80;52.60;;;;;;5012105;28;20100;-85
2021/12/21 03:17:39;;;;;;;9.95;5.18;;;18.80;52.60;;;;;;5011462;28;20507;-85
2021/12/21 03:20:05;;;;;;;9.82;5.38;;;18.60;52.50;;;;;;5011544;28;20044;-85
2021/12/21 03:22:30;;;;;;;10.35;4.70;;;18.60;52.50;;;;;;5011083;28;20500;-85
2021/12/21 03:24:56;;;;;;;9.90;4.85;;;18.60;52.50;;;;;;5011815;28;20037;-85
2021/12/21 03:27:22;;;;;;;8.57;4.57;;;18.60;52.50;;;;;;5011427;28;20558;-85
2021/12/21 03:29:48;;;;;;;8.77;4.95;;;18.60;52.50;;;;;;5011041;28;20033;-85
2021/12/21 03:32:13;;;;;;;9.98;5.40;;;18.60;52.50;;;;;;5012009;28;20063;-85
2021/12/21 03:34:39;;;;;;;8.35;4.80;;;18.60;52.50;;;;;;5011673;28;20073;-85
2021/12/21 03:37:11;;;;;;;8.65;4.28;;;18.60;52.50;;;;;;5011123;28;20045;-85
2021/12/21 03:39:36;;;;;;;8.23;4.63;;;18.60;52.50;;;;;;5011794;28;20107;-85
2021/12/21 03:42:03;;;;;;;9.55;4.93;;;18.60;52.50;;;;;;5009180;28;20057;-85
2021/12/21 03:44:29;;;;;;;10.30;5.20;;;18.60;52.50;;;;;;5010743;28;20051;-85
2021/12/21 03:46:56;;;;;;;8.93;5.05;;;18.90;52.60;;;;;;5011479;28;20045;-85
2021/12/21 03:51:59;;;;;;;8.30;4.30;;;18.60;52.50;;;;;;5011267;28;20057;-85
2021/12/21 03:54:24;;;;;;;8.35;4.72;;;18.60;52.50;;;;;;5014967;28;20638;-85
2021/12/21 03:56:51;;;;;;;8.10;4.78;;;18.60;52.50;;;;;;5014956;28;20124;-85
2021/12/21 03:59:17;;;;;;;8.13;4.32;;;18.60;52.50;;;;;;5014817;28;20132;-85
2021/12/21 04:01:43;;;;;;;9.50;5.28;;;18.50;52.40;;;;;;5014788;28;20128;-85
2021/12/21 04:04:09;;;;;;;8.40;4.47;;;18.50;52.40;;;;;;5014069;28;20049;-85
2021/12/21 04:06:35;;;;;;;7.85;4.30;;;18.50;52.40;;;;;;5014642;28;20519;-84
2021/12/21 04:09:02;;;;;;;8.85;4.68;;;18.50;52.40;;;;;;5014677;28;20041;-85
2021/12/21 04:11:30;;;;;;;8.50;4.50;;;18.50;52.40;;;;;;5012844;28;20046;-85
2021/12/21 04:13:56;;;;;;;7.90;4.80;;;18.50;52.40;;;;;;5014411;28;20426;-85
2021/12/21 04:16:22;;;;;;;7.78;4.18;;;18.50;52.40;;;;;;5015306;28;20061;-85
2021/12/21 04:18:47;;;;;;;8.80;4.53;;;18.50;52.40;;;;;;5014236;28;20500;-86
2021/12/21 04:21:13;;;;;;;10.65;4.40;;;18.50;52.40;;;;;;5014692;28;20042;-85
2021/12/21 04:23:42;;;;;;;9.02;4.78;;;18.50;52.40;;;;;;5014785;28;20041;-85
2021/12/21 04:26:08;;;;;;;9.27;4.32;;;18.50;52.40;;;;;;5014191;28;20038;-84
2021/12/21 04:28:34;;;;;;;7.75;4.28;;;18.50;52.30;;;;;;5014717;28;20084;-85
2021/12/21 04:31:00;;;;;;;8.45;4.30;;;18.50;52.40;;;;;;5011119;23;20081;-86
2021/12/21 04:33:25;;;;;;;8.20;4.10;;;20.10;53.20;;;;;;4991271;28;20050;-85
2021/12/21 04:35:51;;;;;;;7.43;4.00;;;18.50;52.30;;;;;;4991503;28;20129;-84
2021/12/21 04:38:26;;;;;;;7.63;4.18;;;18.50;52.40;;;;;;4991729;28;20046;-85
2021/12/21 04:41:01;;;;;;;6.65;4.18;;;19.80;53.10;;;;;;4991509;28;20490;-84
2021/12/21 04:43:27;;;;;;;6.40;3.58;;;18.50;52.40;;;;;;4991541;28;20109;-85
2021/12/21 04:45:52;;;;;;;8.45;4.40;;;18.50;52.40;;;;;;4991174;28;20042;-85
2021/12/21 04:48:18;;;;;;;7.03;3.65;;;18.50;52.40;;;;;;4991139;28;20074;-84
2021/12/21 04:50:45;;;;;;;8.18;4.38;;;18.50;52.40;;;;;;4991486;28;20042;-85
2021/12/21 04:53:10;;;;;;;8.30;4.22;;;18.50;52.50;;;;;;4991708;28;20043;-84
2021/12/21 04:55:36;;;;;;;7.78;3.92;;;18.50;52.50;;;;;;4990957;28;20054;-84
2021/12/21 04:58:02;;;;;;;7.72;3.92;;;18.50;52.50;;;;;;4975117;28;20046;-85
2021/12/21 05:00:28;;;;;;;7.20;4.28;;;18.50;52.50;;;;;;4991521;28;20185;-84
2021/12/21 05:02:53;;;;;;;7.82;4.25;;;18.50;52.50;;;;;;4990692;28;20087;-86
2021/12/21 05:05:19;;;;;;;6.75;3.95;;;18.50;52.60;;;;;;4989739;28;20046;-84
2021/12/21 05:07:50;;;;;;;7.10;4.15;;;18.50;52.60;;;;;;4991469;28;20042;-84
2021/12/21 05:10:15;;;;;;;6.85;4.22;;;18.50;52.60;;;;;;4990917;28;20085;-84
2021/12/21 05:12:41;;;;;;;7.45;3.85;;;19.00;52.80;;;;;;4990921;28;20096;-84
2021/12/21 05:15:09;;;;;;;7.30;3.92;;;18.60;52.70;;;;;;4990597;28;20046;-84
2021/12/21 05:17:35;;;;;;;7.72;4.50;;;18.60;52.70;;;;;;4991312;28;20073;-84
2021/12/21 05:20:00;;;;;;;7.20;4.30;;;18.60;52.70;;;;;;4990959;28;20092;-84
2021/12/21 05:22:27;;;;;;;7.20;3.78;;;18.60;52.70;;;;;;4990379;28;20050;-84
2021/12/21 05:24:53;;;;;;;6.22;3.75;;;18.60;52.80;;;;;;4990930;28;20099;-84
2021/12/21 05:27:19;;;;;;;6.55;3.90;;;19.90;53.40;;;;;;4990468;28;20598;-84
2021/12/21 05:29:45;;;;;;;7.00;4.35;;;18.60;52.70;;;;;;4990274;28;20074;-84
2021/12/21 05:32:10;;;;;;;5.95;3.53;;;18.60;52.70;;;;;;4989909;28;20061;-84
2021/12/21 05:34:36;;;;;;;7.10;4.05;;;18.60;52.70;;;;;;4990272;28;20414;-84
2021/12/21 05:37:06;;;;;;;6.43;3.90;;;18.70;52.70;;;;;;4990257;28;20054;-84
2021/12/21 05:39:40;;;;;;;7.07;4.22;;;18.70;52.70;;;;;;4990392;28;20050;-85
2021/12/21 05:42:06;;;;;;;7.00;4.07;;;18.70;52.70;;;;;;4990097;28;20050;-84
2021/12/21 05:44:32;;;;;;;5.85;3.60;;;18.70;52.70;;;;;;4990252;28;20050;-84
2021/12/21 05:46:58;;;;;;;6.43;3.72;;;18.70;52.70;;;;;;4990292;28;20109;-84
2021/12/21 05:49:24;;;;;;;7.57;3.78;;;18.70;52.70;;;;;;4990423;28;20065;-84
2021/12/21 05:51:49;;;;;;;6.60;3.67;;;18.70;52.70;;;;;;4990229;28;20042;-84
2021/12/21 05:54:15;;;;;;;8.00;3.88;;;18.80;52.70;;;;;;4990011;28;20052;-85
2021/12/21 05:56:41;;;;;;;6.00;3.75;;;18.80;52.70;;;;;;4990340;28;20042;-84
2021/12/21 05:59:06;;;;;;;7.10;3.90;;;18.80;52.60;;;;;;4989656;28;20368;-84
2021/12/21 06:01:33;;;;;;;5.50;3.00;;;18.80;52.70;;;;;;4989949;28;20046;-85
2021/12/21 06:04:00;;;;;;;7.18;3.53;;;18.80;52.60;;;;;;4990225;28;20069;-84
2021/12/21 06:06:26;;;;;;;6.78;3.92;;;18.80;52.60;;;;;;5060200;23;20054;-84
2021/12/21 06:08:53;;;;;;;6.85;3.60;;;18.80;52.60;;;;;;5026353;28;20171;-85
2021/12/21 06:11:21;;;;;;;6.72;3.47;;;18.80;52.50;;;;;;5028923;28;20045;-84
2021/12/21 06:14:17;;;;;;;6.10;3.20;;;18.80;52.50;;;;;;5029277;28;20045;-84
2021/12/21 06:25:36;;;;;;;5.60;2.97;;;18.80;52.50;;;;;;5029083;28;20041;-84
2021/12/21 06:27:47;;;;;;;5.13;3.20;;;18.80;52.50;;;;;;5025806;28;20057;-84
2021/12/21 06:30:13;;;;;;;5.65;3.45;;;18.80;52.50;;;;;;5024551;28;20311;-85
2021/12/21 06:32:39;;;;;;;5.40;3.00;;;18.80;52.50;;;;;;5014387;28;20257;-84
2021/12/21 06:35:05;;;;;;;5.50;2.85;;;18.80;52.50;;;;;;5028147;28;20041;-86
2021/12/21 06:37:31;;;;;;;5.72;3.40;;;18.80;52.50;;;;;;5028165;28;20088;-86
2021/12/21 06:39:56;;;;;;;4.80;2.63;;;18.80;52.50;;;;;;5027562;28;20562;-86
2021/12/21 06:42:23;;;;;;;5.75;2.95;;;19.30;52.80;;;;;;5027625;28;20107;-86
2021/12/21 06:44:54;;;;;;;5.55;3.35;;;19.00;52.60;;;;;;5028486;28;20041;-86
2021/12/21 06:52:49;;;;;;;5.07;2.70;;;18.80;52.40;;;;;;5018481;28;20050;-86
2021/12/21 06:55:14;;;;;;;6.20;3.35;;;18.80;52.40;;;;;;5027158;28;20033;-86
2021/12/21 06:57:43;;;;;;;4.70;2.83;;;18.80;53.10;;;;;;5013360;28;20180;-87
2021/12/21 07:00:13;;;;;;;4.63;2.67;;;20.00;53.10;;;;;;5009036;28;20124;-87
2021/12/21 07:02:39;;;;;;;4.75;3.00;;;18.80;52.40;;;;;;5009528;28;20613;-88
2021/12/21 07:05:05;;;;;;;6.32;3.17;;;18.80;52.40;;;;;;5008749;28;20133;-87
2021/12/21 07:07:31;;;;;;;5.55;2.88;;;18.80;52.40;;;;;;5008154;28;20052;-84
2021/12/21 07:10:02;;;;;;;5.28;2.92;;;19.10;52.50;;;;;;5028714;28;20052;-87
2021/12/21 07:18:08;;;;;;;5.28;3.10;;;18.80;52.30;;;;;;5027640;28;20041;-85
2021/12/21 07:20:34;;;;;;;5.57;2.92;;;18.80;52.30;;;;;;5024843;28;20053;-86
2021/12/21 07:22:59;;;;;;;5.95;3.03;;;18.80;52.30;;;;;;5027034;28;20033;-85
2021/12/21 07:25:27;;;;;;;4.78;2.83;;;18.80;52.30;;;;;;5027110;28;20045;-86
2021/12/21 07:27:52;;;;;;;6.38;2.92;;;18.80;52.20;;;;;;5028519;28;20060;-86
2021/12/21 07:30:18;;;;;;;5.03;2.40;;;18.80;52.20;;;;;;5031670;28;20124;-86
2021/12/21 07:32:43;;;;;;;6.18;2.90;;;18.80;52.20;;;;;;5031488;28;20042;-86
2021/12/21 07:35:09;;;;;;;5.78;2.60;;;18.80;52.20;;;;;;5026081;28;20449;-88
2021/12/21 07:37:35;;;;;;;5.07;2.95;;;18.90;52.20;;;;;;5026133;28;20067;-86
2021/12/21 07:40:02;;;;;;;5.10;3.00;;;20.00;52.80;;;;;;5047598;28;20529;-86
2021/12/21 07:42:28;;;;;;;5.63;3.03;;;18.80;52.20;;;;;;5031923;28;20060;-86
2021/12/21 07:44:53;;;;;;;4.80;2.80;;;18.80;52.20;;;;;;5031202;28;20120;-86
2021/12/21 07:47:22;;;;;;;4.72;2.50;;;19.40;52.50;;;;;;5030054;28;20041;-86
2021/12/21 07:49:47;;;;;;;5.07;2.83;;;18.80;52.10;;;;;;5030596;28;20051;-84
2021/12/21 07:52:13;;;;;;;4.25;2.38;;;18.80;52.10;;;;;;5031414;28;20045;-84
2021/12/21 07:54:41;;;;;;;5.28;2.80;;;18.70;52.10;;;;;;5031563;28;20057;-84
2021/12/21 07:57:07;;;;;;;4.05;2.55;;;18.70;52.10;;;;;;5030416;28;20045;-83
2021/12/21 07:59:33;;;;;;;6.88;3.22;;;18.80;52.10;;;;;;5030222;28;20051;-84
2021/12/21 08:01:59;;;;;;;5.80;2.90;;;18.70;52.00;;;;;;5025410;28;20068;-86
2021/12/21 08:04:27;;;;;;;5.85;2.47;;;18.70;52.00;;;;;;5011559;28;20473;-86
2021/12/21 08:06:56;;;;;;;6.32;2.83;;;18.70;52.00;;;;;;5023460;28;20046;-84
2021/12/21 08:09:21;;;;;;;5.85;2.72;;;18.70;52.00;;;;;;5031543;28;20037;-86
2021/12/21 08:14:32;;;;;;;5.20;2.80;;;18.70;51.90;;;;;;5029566;28;20096;-85
2021/12/21 08:16:57;;;;;;;5.95;2.38;;;20.20;52.70;;;;;;5024630;28;20140;-85
2021/12/21 08:19:33;;;;;;;4.35;2.40;;;18.70;51.90;;;;;;5027917;28;20049;-85
2021/12/21 08:21:59;;;;;;;6.38;2.60;;;18.70;51.90;;;;;;5015605;28;20491;-88
2021/12/21 08:24:24;;;;;;;5.35;2.50;;;18.70;51.90;;;;;;5029160;28;20099;-87
2021/12/21 08:26:50;;;;;;;7.30;2.90;;;18.60;51.80;;;;;;5030723;28;20481;-87
2021/12/21 08:29:15;;;;;;;5.20;2.40;;;18.70;51.90;;;;;;5030437;28;20420;-87
2021/12/21 08:31:41;;;;;;;5.07;2.45;;;18.60;51.90;;;;;;5030293;28;20155;-89
2021/12/21 08:34:06;;;;;;;9.02;2.65;;;18.60;51.90;;;;;;5031610;28;20053;-86
2021/12/21 08:36:32;;;;;;;7.25;2.97;;;18.70;51.90;;;;;;5031098;28;20742;-86
2021/12/21 08:38:57;;;;;;;6.32;3.03;;;18.60;51.90;;;;;;5030325;28;20041;-86
2021/12/21 08:41:24;;;;;;;5.25;2.63;;;18.70;51.90;;;;;;5031441;28;20073;-88
2021/12/21 08:43:51;;;;;;;6.00;3.25;;;18.70;51.90;;;;;;5030867;28;20104;-86
2021/12/21 08:46:16;;;;;;;7.10;3.05;;;18.70;51.90;;;;;;5032700;28;20072;-85
2021/12/21 08:48:42;;;;;;;6.65;3.17;;;18.70;51.90;;;;;;5031044;28;20390;-83
2021/12/21 08:51:07;;;;;;;5.53;2.85;;;18.70;51.80;;;;;;5030766;28;20041;-83
2021/12/21 08:53:33;;;;;;;8.80;3.80;;;19.70;52.30;;;;;;5028759;28;20425;-84
2021/12/21 08:55:58;;;;;;;7.80;2.83;;;18.70;51.80;;;;;;5030371;28;20048;-82
2021/12/21 08:58:24;;;;;;;7.40;3.30;;;18.70;51.70;;;;;;5030542;28;20068;-84
2021/12/21 09:00:50;;;;;;;9.07;3.25;;;18.80;51.80;;;;;;5030486;28;20045;-86
2021/12/21 09:03:16;;;;;;;5.93;3.00;;;18.60;51.70;;;;;;5030918;28;20037;-83
2021/12/21 09:05:41;;;;;;;5.43;3.53;;;18.80;51.80;;;;;;5030620;28;20053;-85
2021/12/21 09:08:08;;;;;;;8.07;4.10;;;18.80;51.70;;;;;;5030191;28;20092;-84
2021/12/21 09:10:34;;;;;;;5.85;3.00;;;18.80;51.70;;;;;;5030975;28;20141;-84
2021/12/21 09:13:00;;;;;;;8.38;3.22;;;18.80;51.70;;;;;;5030641;28;20148;-84
2021/12/21 09:15:26;;;;;;;5.18;2.80;;;18.80;51.60;;;;;;5028067;28;20054;-84
2021/12/21 09:17:51;;;;;;;5.72;2.92;;;18.80;52.30;;;;;;5009134;28;20068;-85
2021/12/21 09:20:19;;;;;;;4.78;2.92;;;18.80;51.50;;;;;;5007618;28;20034;-84
2021/12/21 09:22:45;;;;;;;5.93;3.20;;;18.80;51.50;;;;;;5006333;28;20098;-84
2021/12/21 09:25:11;;;;;;;5.78;2.95;;;18.90;51.60;;;;;;5009500;28;20042;-84
2021/12/21 09:27:36;;;;;;;5.50;2.95;;;18.90;51.50;;;;;;5009683;28;20512;-84
2021/12/21 09:30:03;;;;;;;4.65;2.65;;;18.90;51.50;;;;;;5008721;28;20129;-84
2021/12/21 09:32:29;;;;;;;6.38;2.75;;;18.90;51.50;;;;;;5006601;28;20038;-84
2021/12/21 09:34:54;;;;;;;5.35;2.60;;;19.30;51.60;;;;;;5009921;28;20049;-84
2021/12/21 09:37:21;;;;;;;6.68;2.88;;;19.00;51.40;;;;;;5010023;28;20049;-84
2021/12/21 09:39:49;;;;;;;5.05;2.85;;;19.00;51.40;;;;;;5009630;28;20401;-84
2021/12/21 09:42:16;;;;;;;5.70;2.92;;;19.00;51.40;;;;;;5007905;28;20065;-84
2021/12/21 09:44:42;;;;;;;6.20;2.70;;;19.00;51.30;;;;;;5009384;28;20080;-84
2021/12/21 09:47:09;;;;;;;5.05;2.47;;;19.00;51.30;;;;;;5008384;28;20132;-84
2021/12/21 09:49:38;;;;;;;7.25;3.10;;;19.00;51.20;;;;;;5009212;28;20696;-84
2021/12/21 09:52:05;;;;;;;6.18;2.33;;;19.00;51.20;;;;;;5008922;28;20124;-84
2021/12/21 09:54:32;;;;;;;5.07;2.90;;;19.10;51.20;;;;;;5009275;28;20049;-84
2021/12/21 09:56:57;;;;;;;4.93;2.60;;;19.10;51.20;;;;;;5007917;28;20646;-84
2021/12/21 09:59:23;;;;;;;5.45;2.83;;;19.10;51.10;;;;;;5035967;28;20091;-85
2021/12/21 10:01:49;;;;;;;4.65;2.35;;;19.10;51.10;;;;;;5046988;28;20610;-84
2021/12/21 10:04:14;;;;;;;6.72;2.42;;;19.10;51.00;;;;;;5046267;28;20041;-83
2021/12/21 10:06:47;;;;;;;4.20;2.20;;;19.20;51.20;;;;;;5048331;28;20053;-85
2021/12/21 10:09:13;;;;;;;5.28;2.63;;;19.20;51.10;;;;;;5016500;28;20084;-84
2021/12/21 10:11:42;;;;;;;4.88;2.42;;;19.30;51.20;;;;;;5029811;28;20073;-84
2021/12/21 10:14:08;;;;;;;4.90;2.58;;;19.30;51.30;;;;;;5036278;28;20098;-85
2021/12/21 10:16:34;;;;;;;4.43;2.40;;;19.30;51.20;;;;;;5028907;28;20041;-83
2021/12/21 10:18:59;;;;;;;5.00;2.50;;;19.30;51.30;;;;;;5027477;28;20049;-87
2021/12/21 10:21:25;;;;;;;5.57;2.67;;;19.30;51.40;;;;;;5029549;28;20060;-82
2021/12/21 10:23:51;;;;;;;4.68;2.60;;;19.00;51.10;;;;;;5029661;28;20053;-82
2021/12/21 10:26:22;;;;;;;5.57;2.45;;;19.50;51.50;;;;;;5028911;28;20099;-89
2021/12/21 10:28:57;;;;;;;8.60;2.30;;;19.50;51.50;;;;;;5026339;28;20044;-88
2021/12/21 10:31:56;;;;;;;6.35;2.30;;;19.90;51.70;;;;;;5026550;28;20083;-84
2021/12/21 10:34:23;;;;;;;6.03;2.13;;;19.60;51.60;;;;;;5030452;28;20068;-81
2021/12/21 10:36:50;;;;;;;3.97;2.00;;;19.60;51.40;;;;;;5032013;28;20102;-86
2021/12/21 10:39:28;;;;;;;8.35;3.00;;;20.20;52.00;;;;;;5011508;28;20037;-87
2021/12/21 10:41:59;;;;;;;9.82;2.55;;;19.80;51.80;;;;;;5030704;28;20049;-90
2021/12/21 10:44:24;;;;;;;5.32;2.30;;;20.50;52.10;;;;;;5025483;28;20103;-91
2021/12/21 10:46:52;;;;;;;4.15;2.08;;;21.10;52.20;;;;;;5032811;28;20472;-86
2021/12/21 10:49:23;;;;;;;5.40;2.60;;;20.00;51.00;;;;;;5032266;28;20114;-85
2021/12/21 10:52:05;;;;;;;4.20;2.15;;;20.30;50.50;;;;;;5027764;28;20082;-87
2021/12/21 10:54:41;;;;;;;5.45;2.00;;;20.30;50.40;;;;;;5027216;28;20036;-88
2021/12/21 10:57:11;;;;;;;4.40;2.50;;;20.20;50.30;;;;;;5028909;28;20081;-88
2021/12/21 10:59:42;;;;;;;4.82;2.33;;;20.10;50.30;;;;;;5027937;28;20052;-88
2021/12/21 11:02:13;;;;;;;7.20;1.92;;;20.10;50.40;;;;;;5028939;28;20045;-88
2021/12/21 11:04:40;;;;;;;4.13;1.80;;;20.00;50.40;;;;;;5027870;28;20045;-88
2021/12/21 11:07:24;;;;;;;4.85;2.28;;;19.90;50.40;;;;;;5028000;28;20460;-89
2021/12/21 11:09:59;;;;;;;4.82;2.33;;;19.90;50.40;;;;;;5007437;28;20042;-89
2021/12/21 11:12:26;;;;;;;4.22;2.20;;;19.90;50.50;;;;;;4994334;28;20050;-88
2021/12/21 11:14:53;;;;;;;4.95;2.20;;;19.90;50.50;;;;;;5028038;28;20071;-88
2021/12/21 11:17:20;;;;;;;5.25;2.03;;;19.80;50.50;;;;;;5028660;28;20103;-88
2021/12/21 11:19:45;;;;;;;5.97;2.05;;;19.80;50.50;;;;;;5028190;28;20512;-88
2021/12/21 11:22:11;;;;;;;4.10;2.17;;;19.80;50.50;;;;;;5028305;28;20045;-88
2021/12/21 11:24:37;;;;;;;6.03;2.10;;;19.70;50.50;;;;;;5011807;28;20559;-87
2021/12/21 11:27:03;;;;;;;4.90;2.20;;;19.70;50.50;;;;;;4992560;28;20050;-88
2021/12/21 11:29:29;;;;;;;4.47;2.10;;;19.70;50.50;;;;;;5018552;28;20041;-87
2021/12/21 11:31:55;;;;;;;4.95;2.20;;;19.70;50.60;;;;;;5011948;28;20131;-87
2021/12/21 11:34:24;;;;;;;5.28;1.80;;;19.70;50.60;;;;;;4982228;28;20041;-87
2021/12/21 11:39:38;;;;;;;5.03;2.10;;;19.70;50.60;;;;;;5044544;28;20053;-88
2021/12/21 11:42:16;;;;;;;3.45;1.80;;;19.70;50.60;;;;;;5026969;28;20107;-87
2021/12/21 11:45:02;;;;;;;4.35;2.20;;;19.60;50.60;;;;;;4995109;28;20497;-87
2021/12/21 11:47:41;;;;;;;3.67;1.88;;;19.60;50.60;;;;;;5012681;28;20041;-88
2021/12/21 11:50:08;;;;;;;4.90;2.20;;;19.60;50.60;;;;;;5025954;28;20034;-87
2021/12/21 11:52:48;;;;;;;3.53;1.88;;;19.60;50.70;;;;;;4996432;28;20079;-87
2021/12/21 11:55:14;;;;;;;5.03;2.22;;;19.60;50.70;;;;;;4987975;28;20049;-87
2021/12/21 11:57:45;;;;;;;7.32;2.20;;;20.90;51.30;;;;;;4988222;28;20042;-87
2021/12/21 12:00:20;;;;;;;4.70;2.00;;;19.60;50.60;;;;;;4988760;28;20069;-86
2021/12/21 12:02:46;;;;;;;3.22;1.80;;;19.60;50.60;;;;;;5008120;28;20109;-87
2021/12/21 12:05:18;;;;;;;4.03;2.08;;;19.60;50.60;;;;;;5007534;28;20049;-87
2021/12/21 12:07:44;;;;;;;3.85;1.80;;;19.60;50.60;;;;;;5007523;28;20105;-87
2021/12/21 12:10:14;;;;;;;4.18;1.70;;;19.60;50.60;;;;;;5007798;28;20874;-86
2021/12/21 12:12:39;;;;;;;4.05;1.90;;;19.60;50.70;;;;;;5008308;28;20053;-87
2021/12/21 12:15:06;;;;;;;4.07;1.60;;;19.60;50.60;;;;;;4994461;28;20033;-86
2021/12/21 12:17:32;;;;;;;3.40;1.73;;;19.60;50.60;;;;;;5011774;28;20057;-87
2021/12/21 12:20:05;;;;;;;3.17;1.50;;;19.60;50.60;;;;;;5011889;28;20057;-86
2021/12/21 12:22:38;;;;;;;4.15;1.90;;;19.60;50.60;;;;;;5011794;28;20050;-87
2021/12/21 12:25:05;;;;;;;3.13;1.63;;;19.60;50.70;;;;;;5011884;28;20123;-87
2021/12/21 12:27:31;;;;;;;3.83;1.63;;;19.60;50.60;;;;;;5031600;28;20103;-87
2021/12/21 12:29:58;;;;;;;3.67;1.92;;;19.60;50.70;;;;;;5028742;28;20057;-87
2021/12/21 12:32:32;;;;;;;3.63;1.85;;;19.60;50.60;;;;;;5030256;28;20063;-86
2021/12/21 12:35:06;;;;;;;3.67;1.75;;;19.60;50.70;;;;;;5022760;28;20065;-86
2021/12/21 12:37:31;;;;;;;3.90;1.85;;;19.60;50.60;;;;;;5009734;28;20085;-82
2021/12/21 12:40:10;;;;;;;3.70;1.75;;;19.60;50.70;;;;;;5018257;28;20077;-86
2021/12/21 12:42:36;;;;;;;3.75;1.85;;;19.70;50.80;;;;;;5011417;28;20056;-85
2021/12/21 12:45:16;;;;;;;2.80;1.50;;;19.80;51.10;;;;;;4986923;28;20148;-84
2021/12/21 12:47:43;;;;;;;4.97;1.60;;;19.70;51.00;;;;;;5005911;28;20054;-84
2021/12/21 12:50:23;;;;;;;4.80;1.75;;;19.70;50.90;;;;;;5006390;28;20053;-85
2021/12/21 12:53:09;;;;;;;3.40;1.77;;;19.70;50.80;;;;;;5009895;28;20482;-85
2021/12/21 12:55:56;;;;;;;3.90;1.63;;;19.70;50.80;;;;;;4996123;28;20682;-84
2021/12/21 12:58:24;;;;;;;5.82;1.70;;;19.80;50.80;;;;;;5007870;28;20046;-85
2021/12/21 13:01:03;;;;;;;3.60;1.60;;;19.80;50.90;;;;;;5009705;28;20393;-84
2021/12/21 13:03:35;;;;;;;5.20;1.70;;;19.80;51.00;;;;;;4994199;28;20077;-84
2021/12/21 13:06:07;;;;;;;4.47;1.73;;;19.80;50.90;;;;;;5009196;28;20089;-83
2021/12/21 13:08:32;;;;;;;3.45;1.48;;;19.80;50.90;;;;;;5009374;28;20058;-83
2021/12/21 13:10:58;;;;;;;4.22;2.00;;;19.80;50.90;;;;;;5005908;28;20045;-84
2021/12/21 13:13:32;;;;;;;3.08;1.65;;;19.90;50.90;;;;;;5010234;28;20034;-83
2021/12/21 13:16:02;;;;;;;3.13;1.42;;;19.90;50.90;;;;;;5009835;28;20041;-84
2021/12/21 13:18:28;;;;;;;3.42;1.50;;;19.90;50.90;;;;;;4995990;28;20088;-84
2021/12/21 13:20:53;;;;;;;3.08;1.30;;;19.90;50.90;;;;;;5009639;28;20191;-84
2021/12/21 13:23:25;;;;;;;3.38;1.52;;;19.90;50.90;;;;;;5009548;28;20045;-85
2021/12/21 13:26:15;;;;;;;3.35;1.42;;;19.90;50.80;;;;;;5005741;28;20084;-84
2021/12/21 13:28:53;;;;;;;3.35;1.23;;;20.00;50.90;;;;;;5004918;28;20053;-85
2021/12/21 13:31:20;;;;;;;4.35;1.52;;;19.90;50.80;;;;;;5009359;28;20766;-84
2021/12/21 13:33:50;;;;;;;2.97;1.30;;;19.90;50.80;;;;;;5010374;28;20734;-84
2021/12/21 13:36:16;;;;;;;3.78;1.38;;;19.90;50.80;;;;;;5009286;28;20060;-84
2021/12/21 13:38:41;;;;;;;8.52;2.50;;;19.90;50.80;;;;;;5009890;28;20046;-86
2021/12/21 13:41:09;;;;;;;4.55;2.65;;;19.90;50.20;;;;;;5007597;28;20052;-83
2021/12/21 13:43:36;;;;;;;5.65;2.42;;;20.00;49.30;;;;;;5010758;28;20072;-86
2021/12/21 13:46:06;;;;;;;8.57;3.17;;;19.90;49.30;;;;;;4991987;28;20042;-85
2021/12/21 13:48:33;;;;;;;17.38;7.38;;;19.90;49.30;;;;;;5029125;28;20060;-88